General Aviation Weather

Text Reports

Enter one or more of the following location identifiers separated by a space:

Zip Code, Four-Character ICAO or Three-Character IATA airport codes.

METAR - Aviation Routine Weather Report
KGPZ - Grand Rapids, Minnesota
Updated at 9:35 AM GMT on July 05, 2015 (4:35 AM CDT):
METAR KGPZ 050935Z AUTO 15006KT 3SM CLR 17/16 A2988 RMK AO1
TAF - Terminal Area Forecast
KGPZ - Grand Rapids, Minnesota
Updated at 9:35 AM GMT on July 05, 2015 (4:35 AM CDT):
No TAF is currently available for this location.
Decoded:
No decoded TAF is available.
PIREP - Pilot Weather Report
KGPZ - Grand Rapids, Minnesota
Updated at 9:35 AM GMT on July 05, 2015 (4:35 AM CDT):
No PIREP is currently available for this location.
AIRMET - Airmens Meteorological Information
KGPZ - Grand Rapids, Minnesota
Updated at 9:35 AM GMT on July 05, 2015 (4:35 AM CDT):
No AIRMET is currently available for this location.
SIGMET - Significant Meteorological Information
KGPZ - Grand Rapids, Minnesota
Updated at 9:35 AM GMT on July 05, 2015 (4:35 AM CDT):
No SIGMET is currently available for this location.
NOTAM - Notice to Airmen
KGPZ - Grand Rapids, Minnesota
Updated at 9:35 AM GMT on July 05, 2015 (4:35 AM CDT):
No NOTAM is currently available for this location.
Forecast Area
KGPZ - Grand Rapids, Minnesota
Updated at 9:35 AM GMT on July 05, 2015 (4:35 AM CDT):
No NOTAM is currently available for this location.
Aviation Weather Maps